KBWI/BWI METAR and TAF weather

Enter ICAO airport designator
Station Type Date Time Source
KBWI METAR 2020/04/06 14:54 UTC NOAA

KBWI 061454Z 03007KT 10SM FEW140 FEW250 17/04 A3008 RMK AO2 SLP184 T01670044 51002


Station Type Date Time Source
KBWI Decoded METAR 2020/04/06 14:54 UTC NOAA

BALTIMORE-WASHINGTON INTERNATIONAL , MD, United States (KBWI) 39-10N 076-41W 59M
Apr 06, 2020 - 10:54 AM EDT / 2020.04.06 1454 UTC
Wind: from the NNE (030 degrees) at 8 MPH (7 KT):0
Visibility: 10 mile(s):0
Sky conditions: mostly clear
Temperature: 62.1 F (16.7 C)
Dew Point: 39.9 F (4.4 C)
Relative Humidity: 43%
Pressure (altimeter): 30.08 in. Hg (1018 hPa)
Pressure tendency: 0.01 inches (0.2 hPa) higher than three hours ago
ob: KBWI 061454Z 03007KT 10SM FEW140 FEW250 17/04 A3008 RMK AO2 SLP184 T01670044 51002
cycle: 15

Station Type Date Time Source
KBWI TAF 2020/04/06 15:59 UTC NOAA

TAF
AMD KBWI 061459Z 0615/0718 02008KT P6SM FEW130
FM062200 33004KT P6SM SKC
FM070700 00000KT P6SM BKN070
FM071200 VRB03KT P6SM -SHRA BKN035
FM071700 22006KT P6SM -SHRA OVC035

Example: see airport list